North Potomac, Maryland
Current Conditions -  °F | °C
As of 4:35 AM on Monday 24 Nov 2014 (Local Time) from KGAI Reporting Station
Broken Clouds Broken Clouds  
Wind Chill: 63°   Ceiling: 2000
Heat Index: 63°   Visibility: 10mi
Dew Point: 61°   Wind: 8mph
Humidity: 94%   Direction: 170°S
Pressure: 29.68"   Gusts: 28mph
Location:  39.08°N, 77.26°W
Report Text: KGAI 240935Z 17007G24KT 150V210 10SM FEW010 SCT015 BKN020 17/16 A2968 RMK AO1
Loading
Personal Weather Stations






























Interactive Weather Map New forecast layout! Learn more

10-Day Weather Forecast

Advertisements
Track Severe Weather on mobile